createdAt,value
2022-08-07T00:02:35.467Z,1.92
2022-08-07T00:04:05.859Z,1.95
2022-08-07T00:06:33.693Z,1.83
2022-08-07T00:09:16.684Z,2.30
2022-08-07T00:11:54.500Z,2.00
2022-08-07T00:14:25.242Z,2.00
2022-08-07T00:16:52.604Z,2.25
2022-08-07T00:19:21.574Z,1.98
2022-08-07T00:21:56.944Z,1.80
2022-08-07T00:24:29.175Z,2.20
2022-08-07T00:27:07.512Z,1.92
2022-08-07T00:29:37.034Z,1.90
2022-08-07T00:32:07.572Z,1.60
2022-08-07T00:34:35.555Z,1.80
2022-08-07T00:37:04.999Z,1.80
2022-08-07T00:39:33.930Z,1.95
2022-08-07T00:42:01.771Z,2.20
2022-08-07T00:44:29.544Z,1.83
2022-08-07T00:46:56.429Z,2.05
2022-08-07T00:49:24.908Z,2.25
2022-08-07T00:52:10.338Z,1.60
2022-08-07T00:54:40.655Z,2.15
2022-08-07T00:57:09.167Z,1.80
2022-08-07T00:59:37.417Z,2.15
2022-08-07T01:02:14.237Z,2.17
2022-08-07T01:04:53.710Z,2.20
2022-08-07T01:07:27.556Z,2.22
2022-08-07T01:10:11.048Z,2.45
2022-08-07T01:12:53.220Z,2.33
2022-08-07T01:15:21.271Z,2.17
2022-08-07T01:17:48.064Z,2.45
2022-08-07T01:20:16.816Z,2.75
2022-08-07T01:22:58.350Z,2.72
2022-08-07T01:25:55.176Z,2.60
2022-08-07T01:28:22.188Z,2.55
2022-08-07T01:30:53.928Z,2.20
2022-08-07T01:33:24.602Z,2.47
2022-08-07T01:36:06.280Z,2.30
2022-08-07T01:38:37.003Z,2.45
2022-08-07T01:41:13.805Z,2.42
2022-08-07T01:43:53.788Z,2.03
2022-08-07T01:46:22.010Z,2.28
2022-08-07T01:48:49.321Z,1.90
2022-08-07T01:52:01.923Z,2.33
2022-08-07T01:54:21.962Z,2.10
2022-08-07T01:57:24.423Z,2.45
2022-08-07T02:00:12.805Z,1.90
2022-08-07T02:03:12.566Z,2.20
2022-08-07T02:05:59.580Z,2.60
2022-08-07T02:08:33.570Z,2.15
2022-08-07T02:11:03.707Z,2.08
2022-08-07T02:13:57.863Z,1.95
2022-08-07T02:16:32.948Z,2.17
2022-08-07T02:19:05.776Z,1.85
2022-08-07T02:21:56.636Z,2.22
2022-08-07T02:24:25.175Z,1.98
2022-08-07T02:26:52.965Z,2.28
2022-08-07T02:29:21.921Z,2.10
2022-08-07T02:31:50.276Z,2.00
2022-08-07T02:34:18.597Z,2.60
2022-08-07T02:36:52.359Z,1.95
2022-08-07T02:40:01.749Z,2.10
2022-08-07T02:42:14.681Z,2.13
2022-08-07T02:44:48.278Z,2.25
2022-08-07T02:47:45.292Z,1.88
2022-08-07T02:50:12.335Z,2.22
2022-08-07T02:52:48.614Z,2.63
2022-08-07T02:55:28.482Z,2.30
2022-08-07T02:58:13.405Z,2.53
2022-08-07T03:00:46.612Z,2.08
2022-08-07T03:03:22.718Z,2.13
2022-08-07T03:05:54.092Z,2.08
2022-08-07T03:08:26.829Z,2.05
2022-08-07T03:11:01.154Z,2.50
2022-08-07T03:13:38.782Z,2.30
2022-08-07T03:16:08.042Z,2.85
2022-08-07T03:18:36.103Z,2.95
2022-08-07T03:21:08.664Z,2.10
2022-08-07T03:24:19.990Z,2.50
2022-08-07T03:26:33.826Z,2.60
2022-08-07T03:29:10.448Z,2.83
2022-08-07T03:31:42.741Z,2.72
2022-08-07T03:34:18.318Z,3.45
2022-08-07T03:36:50.604Z,3.33
2022-08-07T03:39:58.969Z,2.55
2022-08-07T03:42:07.322Z,3.30
2022-08-07T03:44:37.526Z,2.97
2022-08-07T03:47:13.330Z,3.30
2022-08-07T03:49:51.843Z,3.40
2022-08-07T03:52:27.651Z,2.53
2022-08-07T03:55:06.247Z,2.85
2022-08-07T03:58:32.941Z,3.10
2022-08-07T04:00:30.255Z,3.42
2022-08-07T04:02:59.482Z,3.05
2022-08-07T04:05:40.734Z,2.97
2022-08-07T04:08:18.640Z,3.47
2022-08-07T04:10:54.390Z,3.22
2022-08-07T04:14:32.896Z,2.90
2022-08-07T04:16:31.410Z,3.08
2022-08-07T04:19:04.263Z,3.25
2022-08-07T04:21:59.404Z,3.25
2022-08-07T04:24:38.870Z,3.28
2022-08-07T04:27:20.299Z,3.22
2022-08-07T04:30:02.261Z,3.10
2022-08-07T04:32:59.618Z,3.15
2022-08-07T04:35:35.416Z,2.67
2022-08-07T04:38:11.452Z,2.78
2022-08-07T04:40:52.763Z,2.90
2022-08-07T04:44:11.836Z,3.00
2022-08-07T04:47:04.675Z,3.72
2022-08-07T04:49:38.577Z,3.53
2022-08-07T04:52:25.158Z,3.17
2022-08-07T04:55:15.564Z,3.35
2022-08-07T04:58:11.763Z,3.13
2022-08-07T05:00:55.832Z,3.50
2022-08-07T05:04:07.160Z,3.50
2022-08-07T05:06:51.529Z,3.83
2022-08-07T05:09:37.806Z,3.50
2022-08-07T05:12:27.280Z,3.55
2022-08-07T05:15:23.138Z,3.33
2022-08-07T05:18:08.598Z,3.45
2022-08-07T05:20:44.552Z,4.40
2022-08-07T05:23:16.831Z,3.45
2022-08-07T05:26:10.751Z,3.47
2022-08-07T05:28:35.617Z,3.35
2022-08-07T05:31:05.328Z,3.58
2022-08-07T05:33:37.010Z,3.55
2022-08-07T05:36:12.250Z,3.90
2022-08-07T05:38:59.994Z,3.88
2022-08-07T05:42:00.319Z,3.63
2022-08-07T05:44:29.565Z,3.95
2022-08-07T05:47:00.259Z,3.20
2022-08-07T05:49:40.803Z,3.42
2022-08-07T05:52:11.647Z,2.90
2022-08-07T05:54:53.323Z,2.65
2022-08-07T05:57:26.509Z,2.55
2022-08-07T06:00:01.244Z,2.75
2022-08-07T06:02:40.536Z,2.55
2022-08-07T06:05:15.690Z,2.15
2022-08-07T06:08:29.750Z,2.10
2022-08-07T06:10:36.971Z,2.55
2022-08-07T06:13:05.865Z,2.13
2022-08-07T06:15:42.342Z,2.63
2022-08-07T06:18:14.036Z,2.40
2022-08-07T06:20:51.051Z,2.33
2022-08-07T06:24:37.638Z,2.42
2022-08-07T06:26:21.998Z,2.83
2022-08-07T06:29:01.141Z,2.47
2022-08-07T06:31:46.909Z,2.30
2022-08-07T06:34:20.831Z,2.50
2022-08-07T06:36:52.041Z,2.75
2022-08-07T06:40:16.203Z,2.78
2022-08-07T06:42:32.842Z,2.15
2022-08-07T06:45:15.525Z,2.35
2022-08-07T06:47:58.399Z,2.63
2022-08-07T06:50:33.497Z,3.10
2022-08-07T06:53:04.588Z,2.58
2022-08-07T06:56:00.066Z,2.42
2022-08-07T06:58:27.540Z,2.70
2022-08-07T07:01:03.055Z,2.92
2022-08-07T07:03:47.522Z,3.08
2022-08-07T07:06:26.310Z,2.92
2022-08-07T07:08:54.613Z,2.40
2022-08-07T07:12:07.967Z,2.60
2022-08-07T07:14:10.260Z,3.33
2022-08-07T07:16:50.790Z,2.45
2022-08-07T07:19:56.893Z,2.83
2022-08-07T07:22:36.590Z,2.58
2022-08-07T07:26:30.421Z,2.80
2022-08-07T07:28:02.987Z,2.60
2022-08-07T07:30:38.705Z,2.45
2022-08-07T07:33:12.606Z,2.88
2022-08-07T07:36:04.134Z,2.83
2022-08-07T07:38:32.340Z,2.22
2022-08-07T07:41:02.947Z,2.53
2022-08-07T07:43:47.796Z,2.40
2022-08-07T07:46:37.999Z,2.30
2022-08-07T07:50:35.275Z,2.30
2022-08-07T07:51:59.922Z,2.35
2022-08-07T07:54:28.084Z,1.90
2022-08-07T07:56:57.284Z,1.88
2022-08-07T07:59:52.423Z,2.40
2022-08-07T08:02:22.565Z,2.20
2022-08-07T08:05:05.341Z,2.10
2022-08-07T08:07:42.417Z,1.92
2022-08-07T08:10:37.712Z,1.67
2022-08-07T08:13:07.273Z,2.22
2022-08-07T08:15:57.525Z,1.80
2022-08-07T08:18:28.260Z,1.90
2022-08-07T08:20:56.879Z,1.77
2022-08-07T08:23:43.554Z,1.92
2022-08-07T08:26:32.516Z,1.45
2022-08-07T08:29:01.124Z,1.80
2022-08-07T08:32:17.113Z,1.83
2022-08-07T08:34:31.782Z,1.30
2022-08-07T08:36:59.848Z,1.40
2022-08-07T08:39:38.996Z,1.73
2022-08-07T08:42:29.029Z,1.23
2022-08-07T08:45:13.284Z,1.30
2022-08-07T08:47:52.956Z,1.40
2022-08-07T08:50:39.712Z,1.15
2022-08-07T08:53:19.170Z,1.30
2022-08-07T08:55:58.881Z,1.40
2022-08-07T08:58:50.628Z,1.38
2022-08-07T09:01:44.174Z,1.02
2022-08-07T09:04:36.499Z,1.20
2022-08-07T09:07:11.541Z,0.70
2022-08-07T09:09:42.637Z,0.47
2022-08-07T09:16:21.759Z,0.30
2022-08-07T09:18:36.728Z,0.57
2022-08-07T09:21:33.921Z,0.65
2022-08-07T09:24:33.628Z,0.38
2022-08-07T09:27:30.636Z,0.40
2022-08-07T09:30:11.779Z,0.60
2022-08-07T09:33:24.106Z,0.70
2022-08-07T09:36:06.535Z,0.60
2022-08-07T09:38:54.386Z,0.60
2022-08-07T09:41:58.361Z,0.82
2022-08-07T09:46:28.588Z,0.65
2022-08-07T09:48:16.401Z,0.50
2022-08-07T09:51:14.788Z,0.47
2022-08-07T09:54:02.601Z,0.57
2022-08-07T09:57:06.475Z,0.50
2022-08-07T10:00:05.433Z,0.50
2022-08-07T10:05:59.706Z,0.50
2022-08-07T10:08:39.934Z,0.57
2022-08-07T10:12:01.137Z,0.73
2022-08-07T10:14:33.401Z,0.50
2022-08-07T10:18:01.830Z,0.70
2022-08-07T10:20:54.595Z,0.63
2022-08-07T10:24:06.925Z,0.65
2022-08-07T10:26:33.285Z,0.80
2022-08-07T10:29:43.205Z,0.60
2022-08-07T10:32:53.379Z,0.60
2022-08-07T10:36:14.998Z,0.40
2022-08-07T10:39:00.991Z,0.70
2022-08-07T10:41:53.077Z,0.70
2022-08-07T10:44:38.614Z,0.73
2022-08-07T10:47:14.170Z,0.80
2022-08-07T10:49:53.906Z,0.38
2022-08-07T10:52:52.754Z,0.60
2022-08-07T10:55:38.138Z,0.65
2022-08-07T10:58:46.222Z,0.60
2022-08-07T11:01:51.438Z,0.30
2022-08-07T11:04:45.671Z,0.70
2022-08-07T11:07:59.442Z,0.70
2022-08-07T11:10:27.322Z,0.60
2022-08-07T11:13:42.343Z,0.50
2022-08-07T11:16:10.155Z,0.50
2022-08-07T11:18:50.706Z,0.50
2022-08-07T11:24:01.971Z,0.57
2022-08-07T11:27:02.088Z,0.68
2022-08-07T11:29:41.960Z,0.70
2022-08-07T11:32:32.116Z,0.40
2022-08-07T11:35:09.416Z,0.43
2022-08-07T11:38:10.507Z,0.47
2022-08-07T11:40:50.078Z,0.70
2022-08-07T11:43:29.499Z,0.50
2022-08-07T11:46:40.482Z,0.50
2022-08-07T11:50:18.802Z,0.40
2022-08-07T11:52:41.749Z,0.47
2022-08-07T11:56:24.804Z,0.68
2022-08-07T11:58:49.970Z,0.50
2022-08-07T12:01:59.643Z,0.40
2022-08-07T12:04:56.876Z,0.47
2022-08-07T12:07:39.178Z,0.40
2022-08-07T12:10:26.893Z,0.40
2022-08-07T12:13:36.608Z,0.82
2022-08-07T12:16:28.775Z,0.50
2022-08-07T12:19:25.524Z,0.50
2022-08-07T12:26:30.012Z,0.60
2022-08-07T12:29:38.090Z,0.50
2022-08-07T12:37:16.931Z,0.50
2022-08-07T12:39:52.500Z,0.70
2022-08-07T12:42:31.836Z,0.60
2022-08-07T12:45:09.031Z,0.40
2022-08-07T12:47:40.780Z,0.40
2022-08-07T12:50:40.332Z,0.70
2022-08-07T12:53:29.079Z,0.52
2022-08-07T12:56:38.027Z,0.50
2022-08-07T12:59:08.659Z,0.50
2022-08-07T13:02:24.947Z,0.30
2022-08-07T13:06:01.975Z,0.50
2022-08-07T13:08:19.587Z,0.52
2022-08-07T13:11:14.252Z,0.47
2022-08-07T13:13:58.056Z,0.50
2022-08-07T13:16:31.493Z,0.32
2022-08-07T13:19:02.846Z,0.50
2022-08-07T13:21:57.349Z,0.60
2022-08-07T13:24:43.998Z,0.40
2022-08-07T13:28:10.679Z,0.40
2022-08-07T13:35:08.539Z,0.30
2022-08-07T13:37:58.509Z,0.50
2022-08-07T13:40:42.656Z,0.80
2022-08-07T13:43:16.148Z,0.70
2022-08-07T13:46:11.683Z,0.45
2022-08-07T13:48:35.030Z,0.70
2022-08-07T13:51:27.398Z,1.02
2022-08-07T13:54:02.020Z,0.90
2022-08-07T13:56:35.848Z,0.88
2022-08-07T13:59:31.721Z,0.68
2022-08-07T14:02:12.947Z,0.50
2022-08-07T14:04:54.756Z,0.43
2022-08-07T14:07:33.601Z,0.60
2022-08-07T14:10:32.787Z,0.40
2022-08-07T14:13:10.270Z,0.68
2022-08-07T14:15:50.439Z,0.32
2022-08-07T14:18:32.632Z,0.35
2022-08-07T14:22:04.074Z,0.50
2022-08-07T14:24:20.682Z,0.40
2022-08-07T14:26:58.621Z,0.47
2022-08-07T14:30:09.433Z,0.60
2022-08-07T14:32:25.091Z,0.43
2022-08-07T14:34:55.141Z,1.27
2022-08-07T14:37:38.887Z,0.70
2022-08-07T14:40:27.133Z,0.50
2022-08-07T14:43:57.987Z,0.40
2022-08-07T14:48:31.556Z,0.80
2022-08-07T14:51:07.277Z,0.43
2022-08-07T14:54:05.486Z,0.43
2022-08-07T14:56:33.430Z,0.63
2022-08-07T15:01:54.058Z,0.60
2022-08-07T15:04:26.132Z,0.75
2022-08-07T15:06:56.990Z,0.40
2022-08-07T15:12:36.047Z,0.47
2022-08-07T15:13:05.546Z,0.40
2022-08-07T15:15:21.398Z,0.40
2022-08-07T15:17:56.097Z,0.70
2022-08-07T15:23:22.532Z,0.52
2022-08-07T15:26:20.817Z,0.65
2022-08-07T15:28:58.424Z,0.50
2022-08-07T15:38:17.981Z,0.80
2022-08-07T15:43:53.297Z,0.63
2022-08-07T15:46:39.225Z,0.57
2022-08-07T15:50:04.469Z,0.50
2022-08-07T15:52:30.458Z,0.50
2022-08-07T15:55:03.567Z,0.85
2022-08-07T15:57:48.171Z,0.60
2022-08-07T16:00:31.319Z,0.63
2022-08-07T16:03:47.187Z,0.90
2022-08-07T16:06:13.029Z,0.70
2022-08-07T16:08:50.690Z,0.70
2022-08-07T16:11:50.219Z,0.80
2022-08-07T16:14:36.650Z,0.50
2022-08-07T16:18:01.624Z,0.63
2022-08-07T16:21:43.788Z,0.70
2022-08-07T16:24:33.950Z,0.88
2022-08-07T16:30:29.499Z,0.68
2022-08-07T16:34:01.473Z,0.63
2022-08-07T16:36:19.630Z,0.70
2022-08-07T16:39:16.698Z,1.02
2022-08-07T16:42:03.912Z,1.63
2022-08-07T16:45:19.135Z,0.90
2022-08-07T16:48:04.509Z,0.80
2022-08-07T16:50:52.546Z,0.90
2022-08-07T16:54:01.444Z,0.90
2022-08-07T16:56:53.161Z,1.02
2022-08-07T16:59:46.681Z,1.02
2022-08-07T17:02:51.549Z,0.80
2022-08-07T17:06:28.238Z,1.25
2022-08-07T17:09:08.748Z,1.00
2022-08-07T17:12:04.404Z,0.73
2022-08-07T17:15:00.111Z,0.85
2022-08-07T17:17:47.969Z,1.10
2022-08-07T17:20:29.927Z,0.80
2022-08-07T17:23:13.111Z,0.88
2022-08-07T17:26:03.467Z,1.00
2022-08-07T17:28:56.404Z,0.95
2022-08-07T17:32:02.746Z,0.90
2022-08-07T17:34:40.933Z,0.85
2022-08-07T17:38:07.233Z,0.82
2022-08-07T17:40:35.610Z,1.00
2022-08-07T17:43:18.382Z,0.88
2022-08-07T17:45:55.514Z,0.98
2022-08-07T17:48:34.121Z,1.00
2022-08-07T17:51:22.974Z,1.10
2022-08-07T17:54:06.465Z,1.20
2022-08-07T17:57:18.749Z,1.00
2022-08-07T17:59:52.538Z,1.00
2022-08-07T18:02:56.722Z,1.30
2022-08-07T18:06:03.165Z,1.05
2022-08-07T18:09:01.172Z,0.90
2022-08-07T18:12:17.653Z,1.15
2022-08-07T18:14:46.415Z,1.27
2022-08-07T18:18:46.566Z,1.30
2022-08-07T18:21:11.033Z,1.20
2022-08-07T18:23:43.461Z,1.38
2022-08-07T18:26:24.842Z,1.20
2022-08-07T18:30:07.238Z,1.38
2022-08-07T18:32:46.665Z,1.10
2022-08-07T18:35:26.879Z,1.23
2022-08-07T18:38:54.779Z,1.10
2022-08-07T18:41:43.744Z,0.75
2022-08-07T18:45:39.530Z,1.10
2022-08-07T18:47:44.495Z,1.02
2022-08-07T18:50:39.304Z,1.20
2022-08-07T18:53:39.779Z,1.00
2022-08-07T18:56:37.776Z,0.95
2022-08-07T18:59:47.685Z,1.40
2022-08-07T19:02:55.932Z,1.30
2022-08-07T19:06:03.183Z,0.85
2022-08-07T19:08:54.440Z,1.40
2022-08-07T19:12:04.261Z,1.20
2022-08-07T19:15:03.921Z,1.08
2022-08-07T19:18:11.240Z,1.10
2022-08-07T19:21:09.159Z,1.20
2022-08-07T19:23:58.874Z,1.25
2022-08-07T19:26:29.402Z,1.45
2022-08-07T19:31:00.137Z,1.10
2022-08-07T19:32:07.744Z,1.00
2022-08-07T19:34:47.788Z,1.23
2022-08-07T19:37:18.951Z,0.80
2022-08-07T19:40:09.457Z,1.20
2022-08-07T19:42:42.987Z,1.38
2022-08-07T19:46:06.282Z,1.45
2022-08-07T19:48:18.890Z,1.13
2022-08-07T19:54:32.521Z,1.20
2022-08-07T19:58:01.299Z,1.00
2022-08-07T19:58:58.587Z,1.30
2022-08-07T20:01:52.397Z,1.02
2022-08-07T20:04:32.247Z,1.25
2022-08-07T20:07:04.735Z,1.20
2022-08-07T20:10:35.816Z,1.30
2022-08-07T20:12:39.776Z,1.27
2022-08-07T20:15:21.827Z,1.30
2022-08-07T20:18:01.785Z,1.10
2022-08-07T20:20:33.222Z,1.30
2022-08-07T20:23:23.200Z,2.10
2022-08-07T20:26:02.186Z,1.20
2022-08-07T20:28:31.660Z,1.40
2022-08-07T20:31:00.134Z,1.50
2022-08-07T20:33:37.511Z,1.27
2022-08-07T20:36:08.865Z,1.55
2022-08-07T20:38:59.385Z,1.67
2022-08-07T20:41:37.896Z,1.48
2022-08-07T20:44:10.440Z,1.30
2022-08-07T20:46:44.099Z,1.40
2022-08-07T20:49:59.424Z,1.85
2022-08-07T20:52:09.315Z,1.50
2022-08-07T20:54:53.479Z,1.50
2022-08-07T20:57:28.727Z,1.17
2022-08-07T21:00:07.274Z,1.45
2022-08-07T21:07:14.608Z,1.70
2022-08-07T21:10:06.765Z,1.30
2022-08-07T21:18:02.842Z,1.27
2022-08-07T21:20:29.998Z,1.60
2022-08-07T21:24:08.675Z,1.45
2022-08-07T21:27:20.580Z,1.60
2022-08-07T21:29:57.547Z,1.70
2022-08-07T21:32:47.733Z,1.67
2022-08-07T21:36:03.930Z,1.67
2022-08-07T21:38:55.492Z,1.83
2022-08-07T21:42:00.585Z,1.77
2022-08-07T21:44:51.258Z,1.92
2022-08-07T21:47:36.424Z,1.77
2022-08-07T21:50:19.634Z,1.77
2022-08-07T21:53:07.701Z,1.70
2022-08-07T21:55:51.812Z,1.83
2022-08-07T21:58:32.874Z,1.48
2022-08-07T22:01:10.309Z,1.80
2022-08-07T22:03:56.415Z,1.57
2022-08-07T22:06:31.671Z,1.70
2022-08-07T22:09:10.321Z,2.40
2022-08-07T22:12:04.940Z,2.00
2022-08-07T22:14:38.917Z,1.80
2022-08-07T22:17:30.237Z,1.90
2022-08-07T22:20:22.889Z,2.50
2022-08-07T22:22:58.909Z,1.80
2022-08-07T22:25:43.317Z,2.15
2022-08-07T22:28:36.388Z,1.92
2022-08-07T22:34:35.546Z,1.58
2022-08-07T22:37:12.731Z,1.77
2022-08-07T22:40:05.509Z,1.80
2022-08-07T22:42:34.953Z,1.90
2022-08-07T22:45:11.067Z,1.63
2022-08-07T22:48:31.596Z,2.10
2022-08-07T22:51:12.490Z,2.00
2022-08-07T22:54:07.873Z,2.17
2022-08-07T22:57:00.864Z,2.22
2022-08-07T22:59:55.249Z,1.83
2022-08-07T23:02:27.591Z,2.05
2022-08-07T23:06:07.451Z,2.35
2022-08-07T23:08:29.991Z,1.90
2022-08-07T23:11:46.045Z,2.50
2022-08-07T23:14:30.826Z,1.95
2022-08-07T23:17:25.605Z,2.10
2022-08-07T23:20:51.070Z,2.00
2022-08-07T23:24:06.329Z,2.40
2022-08-07T23:26:39.649Z,2.40
2022-08-07T23:30:38.484Z,2.08
2022-08-07T23:34:33.304Z,2.30
2022-08-07T23:36:28.807Z,2.10
2022-08-07T23:39:21.950Z,2.38
2022-08-07T23:42:15.705Z,2.10
2022-08-07T23:45:15.294Z,2.38
2022-08-07T23:48:29.027Z,2.13
2022-08-07T23:52:58.188Z,2.28
2022-08-07T23:54:19.664Z,2.47
2022-08-07T23:57:09.362Z,2.15
